Time;durP1;ratioP1;P1;durP2;ratioP2;P2;SDS_P1;SDS_P2;PMS_P1;PMS_P2;Temp;Humidity;BMP_temperature;BMP_pressure;BME280_temperature;BME280_humidity;BME280_pressure;Samples;Min_cycle;Max_cycle;Signal;HPM_P1;HPM_P2
2023/04/02 00:02:15;;;;;;;8.70;2.33;;;2.80;68.10;;;;;;5054124;28;20049;-28
2023/04/02 00:04:40;;;;;;;10.57;2.80;;;2.70;99.90;;;;;;5053330;28;20052;-28
2023/04/02 00:07:32;;;;;;;9.18;2.15;;;2.60;99.90;;;;;;5053761;28;20432;-28
2023/04/02 00:09:58;;;;;;;8.00;2.20;;;2.60;99.90;;;;;;5053282;28;20106;-29
2023/04/02 00:12:24;;;;;;;10.27;2.63;;;2.60;99.90;;;;;;5053366;28;20140;-28
2023/04/02 00:14:53;;;;;;;9.90;2.78;;;2.50;99.90;;;;;;5054691;28;20097;-28
2023/04/02 00:17:22;;;;;;;7.03;2.47;;;2.50;99.90;;;;;;5057578;28;20102;-28
2023/04/02 00:19:57;;;;;;;11.47;2.90;;;2.40;99.90;;;;;;5073774;28;20478;-28
2023/04/02 00:22:33;;;;;;;6.53;2.20;;;2.40;99.90;;;;;;5073796;28;20048;-28
2023/04/02 00:25:06;;;;;;;5.90;2.10;;;2.40;99.90;;;;;;5074308;28;20390;-29
2023/04/02 00:27:32;;;;;;;5.77;2.47;;;2.30;99.90;;;;;;5068226;28;20056;-27
2023/04/02 00:29:58;;;;;;;7.00;3.00;;;2.30;99.90;;;;;;5053654;28;20499;-27
2023/04/02 00:32:27;;;;;;;7.93;2.10;;;2.30;99.90;;;;;;5053519;28;20041;-28
2023/04/02 00:34:54;;;;;;;8.87;2.63;;;2.30;99.90;;;;;;5054398;28;20136;-27
2023/04/02 00:37:23;;;;;;;9.07;2.67;;;2.20;99.90;;;;;;5053557;28;20091;-27
2023/04/02 00:39:52;;;;;;;6.03;2.17;;;2.20;99.90;;;;;;5052889;28;20403;-28
2023/04/02 00:42:19;;;;;;;10.23;2.23;;;2.20;99.90;;;;;;5053502;28;20044;-28
2023/04/02 00:44:45;;;;;;;7.83;2.73;;;2.10;99.90;;;;;;5053521;28;20469;-27
2023/04/02 00:47:46;;;;;;;7.70;2.43;;;2.10;99.90;;;;;;5053433;28;20088;-27
2023/04/02 00:50:13;;;;;;;6.23;2.63;;;2.00;99.90;;;;;;5053241;28;20557;-27
2023/04/02 00:52:43;;;;;;;9.33;2.40;;;2.00;99.90;;;;;;5053997;28;20439;-30
2023/04/02 00:55:19;;;;;;;6.03;2.20;;;2.00;99.90;;;;;;5054219;28;20115;-28
2023/04/02 00:57:47;;;;;;;9.10;3.23;;;2.00;99.90;;;;;;5053431;28;20106;-27
2023/04/02 01:00:31;;;;;;;10.17;2.67;;;1.90;99.90;;;;;;5053658;28;20037;-28
2023/04/02 01:03:15;;;;;;;8.95;2.17;;;1.90;99.90;;;;;;5053951;28;20045;-28
2023/04/02 01:05:54;;;;;;;5.43;2.17;;;1.90;99.90;;;;;;5054082;28;20064;-27
2023/04/02 01:08:41;;;;;;;5.77;1.37;;;1.90;99.90;;;;;;5054141;28;20053;-28
2023/04/02 01:11:35;;;;;;;4.50;1.80;;;1.90;99.90;;;;;;5052482;28;20061;-27
2023/04/02 01:14:17;;;;;;;8.30;2.93;;;1.80;99.90;;;;;;5053269;28;20131;-27
2023/04/02 01:17:11;;;;;;;10.77;2.10;;;1.80;99.90;;;;;;5055839;28;20060;-27
2023/04/02 01:19:51;;;;;;;6.27;2.13;;;1.80;99.90;;;;;;5056312;28;20415;-28
2023/04/02 01:22:35;;;;;;;7.73;2.63;;;1.70;99.90;;;;;;5076574;28;20052;-27
2023/04/02 01:25:05;;;;;;;4.80;1.80;;;1.70;99.90;;;;;;5073700;28;20494;-27
2023/04/02 01:27:46;;;;;;;9.57;2.43;;;1.70;99.90;;;;;;5057514;28;20045;-27
2023/04/02 01:30:13;;;;;;;6.70;1.90;;;1.70;99.90;;;;;;5057268;28;20090;-27
2023/04/02 01:32:41;;;;;;;6.43;1.90;;;1.60;99.90;;;;;;5057354;28;20045;-27
2023/04/02 01:35:09;;;;;;;5.87;1.70;;;1.60;99.90;;;;;;5056820;28;20087;-27
2023/04/02 01:37:43;;;;;;;6.80;1.70;;;1.60;99.90;;;;;;5056756;28;20052;-27
2023/04/02 01:40:27;;;;;;;4.20;1.90;;;1.60;99.90;;;;;;5057324;28;20045;-27
2023/04/02 01:43:25;;;;;;;6.70;1.97;;;1.60;99.90;;;;;;5057164;28;20557;-27
2023/04/02 01:45:51;;;;;;;6.67;2.20;;;1.60;99.90;;;;;;5057256;28;20045;-26
2023/04/02 01:48:23;;;;;;;9.30;1.90;;;1.60;99.90;;;;;;5055418;28;20084;-28
2023/04/02 01:50:53;;;;;;;8.97;1.87;;;1.50;99.90;;;;;;5057080;28;20128;-27
2023/04/02 01:53:21;;;;;;;8.50;2.20;;;1.50;99.90;;;;;;5070076;28;20049;-27
2023/04/02 01:55:56;;;;;;;10.70;2.23;;;1.50;99.90;;;;;;5076408;28;20048;-27
2023/04/02 01:58:25;;;;;;;6.47;1.93;;;1.70;99.90;;;;;;5077200;28;20052;-26
2023/04/02 02:00:51;;;;;;;6.80;1.80;;;1.50;99.90;;;;;;5076315;28;20125;-27
2023/04/02 02:03:18;;;;;;;5.73;1.53;;;1.40;99.90;;;;;;5074569;28;20490;-27
2023/04/02 02:05:45;;;;;;;9.03;1.80;;;1.40;99.90;;;;;;5076249;28;20157;-27
2023/04/02 02:08:36;;;;;;;8.30;3.47;;;1.40;99.90;;;;;;5076198;28;20048;-27
2023/04/02 02:11:02;;;;;;;6.00;1.67;;;1.40;99.90;;;;;;5075901;28;20044;-26
2023/04/02 02:13:28;;;;;;;7.33;1.77;;;1.40;99.90;;;;;;5070059;28;20077;-27
2023/04/02 02:15:57;;;;;;;3.97;1.27;;;1.40;99.90;;;;;;5055099;28;20207;-27
2023/04/02 02:18:25;;;;;;;7.40;2.20;;;1.30;60.20;;;;;;5054968;28;20084;-28
2023/04/02 02:20:52;;;;;;;9.17;1.30;;;1.30;22.60;;;;;;5056508;28;20037;-27
2023/04/02 02:23:19;;;;;;;7.53;1.57;;;1.30;61.50;;;;;;5058159;28;20135;-27
2023/04/02 02:25:46;;;;;;;4.93;1.63;;;1.50;80.90;;;;;;5075212;28;20044;-26
2023/04/02 02:28:32;;;;;;;4.90;1.33;;;1.20;18.60;;;;;;5074773;28;20135;-26
2023/04/02 02:31:04;;;;;;;6.77;1.67;;;1.20;10.00;;;;;;5076022;28;20403;-27
2023/04/02 02:33:49;;;;;;;4.30;1.40;;;1.10;10.50;;;;;;5073826;28;20059;-26
2023/04/02 02:36:23;;;;;;;3.30;1.13;;;1.10;1.00;;;;;;5074853;28;20052;-27
2023/04/02 02:38:55;;;;;;;6.97;1.37;;;1.20;1.00;;;;;;5075730;28;20048;-26
2023/04/02 02:41:35;;;;;;;9.70;1.60;;;1.10;1.00;;;;;;5075613;28;20048;-26
2023/04/02 02:44:11;;;;;;;7.17;2.23;;;1.10;1.00;;;;;;5059221;28;20041;-26
2023/04/02 02:46:43;;;;;;;9.03;1.70;;;1.10;1.00;;;;;;5055512;28;20491;-26
2023/04/02 02:49:18;;;;;;;4.93;1.67;;;1.00;1.00;;;;;;5055745;28;20048;-26
2023/04/02 02:51:52;;;;;;;6.10;1.47;;;1.00;1.00;;;;;;5055926;28;20045;-26
2023/04/02 02:54:19;;;;;;;5.70;1.37;;;1.00;2.00;;;;;;5055550;28;20068;-26
2023/04/02 02:56:52;;;;;;;6.43;1.33;;;0.90;49.00;;;;;;5073832;28;20100;-26
2023/04/02 02:59:20;;;;;;;8.40;1.80;;;0.90;57.70;;;;;;5075323;28;20048;-26
2023/04/02 03:01:46;;;;;;;4.17;1.20;;;0.90;99.90;;;;;;5075752;28;20120;-26
2023/04/02 03:04:19;;;;;;;5.37;1.17;;;0.90;99.90;;;;;;5075234;28;20048;-26
2023/04/02 03:06:51;;;;;;;4.53;1.20;;;0.90;99.90;;;;;;5071740;28;20041;-26
2023/04/02 03:09:44;;;;;;;4.63;1.10;;;0.90;99.90;;;;;;5055096;28;20049;-26
2023/04/02 03:12:35;;;;;;;6.50;1.23;;;0.90;99.90;;;;;;5054738;28;20114;-26
2023/04/02 03:15:22;;;;;;;4.40;1.40;;;0.90;99.90;;;;;;5055040;28;20057;-26
2023/04/02 03:17:47;;;;;;;7.57;1.67;;;0.80;99.90;;;;;;5057310;28;20055;-25
2023/04/02 03:20:29;;;;;;;4.00;1.17;;;0.80;99.90;;;;;;5069929;28;20044;-27
2023/04/02 03:23:35;;;;;;;9.60;1.93;;;0.80;99.90;;;;;;5075102;28;20048;-27
2023/04/02 03:26:21;;;;;;;6.10;1.73;;;0.80;99.90;;;;;;5074723;28;20048;-27
2023/04/02 03:28:56;;;;;;;5.00;1.43;;;0.70;99.90;;;;;;5074640;28;20478;-26
2023/04/02 03:31:31;;;;;;;5.53;1.40;;;0.70;99.90;;;;;;5062361;28;20049;-26
2023/04/02 03:34:32;;;;;;;3.27;1.20;;;0.70;99.90;;;;;;5071790;28;20056;-27
2023/04/02 03:37:13;;;;;;;7.80;2.07;;;0.70;99.90;;;;;;5074548;28;20057;-26
2023/04/02 03:39:46;;;;;;;7.43;1.30;;;0.70;99.90;;;;;;5074243;28;20048;-26
2023/04/02 03:42:26;;;;;;;7.03;1.73;;;0.60;99.90;;;;;;5074399;28;20045;-26
2023/04/02 03:45:21;;;;;;;7.67;1.97;;;0.60;99.90;;;;;;5040697;28;20040;-26
2023/04/02 03:47:56;;;;;;;6.47;1.40;;;0.60;99.90;;;;;;5073554;28;20079;-26
2023/04/02 03:50:36;;;;;;;7.60;1.70;;;0.60;99.90;;;;;;5073238;28;20143;-26
2023/04/02 03:53:04;;;;;;;4.93;1.53;;;0.60;99.90;;;;;;5074223;28;20493;-25
2023/04/02 03:55:34;;;;;;;5.70;1.30;;;0.60;99.90;;;;;;5073021;28;20132;-26
2023/04/02 03:58:06;;;;;;;7.77;1.40;;;0.70;99.90;;;;;;5073124;28;20048;-25
2023/04/02 04:00:58;;;;;;;8.25;1.35;;;0.70;99.90;;;;;;5074439;28;20469;-27
2023/04/02 04:03:43;;;;;;;5.67;1.53;;;0.60;99.90;;;;;;5072807;28;20052;-26
2023/04/02 04:06:15;;;;;;;3.93;1.70;;;0.60;1.00;;;;;;5072727;28;20059;-27
2023/04/02 04:09:04;;;;;;;6.30;2.45;;;0.60;1.00;;;;;;5074941;28;20076;-26
2023/04/02 04:11:33;;;;;;;6.17;1.10;;;0.60;1.00;;;;;;5072571;28;20063;-26
2023/04/02 04:14:11;;;;;;;13.30;3.13;;;0.60;1.00;;;;;;5073489;28;20398;-26
2023/04/02 04:17:12;;;;;;;6.40;2.40;;;0.50;1.00;;;;;;5073816;28;20131;-26
2023/04/02 04:19:56;;;;;;;5.67;1.30;;;0.50;1.00;;;;;;5072694;28;20048;-26
2023/04/02 04:22:31;;;;;;;7.03;1.97;;;0.50;1.00;;;;;;5073817;28;20044;-26
2023/04/02 04:24:59;;;;;;;6.00;1.87;;;0.50;1.00;;;;;;5073779;28;20053;-27
2023/04/02 04:27:47;;;;;;;9.83;2.13;;;0.50;1.00;;;;;;5073767;28;20075;-26
2023/04/02 04:30:33;;;;;;;14.53;3.23;;;0.50;1.00;;;;;;5074544;28;20098;-26
2023/04/02 04:33:04;;;;;;;7.90;1.83;;;0.50;1.00;;;;;;5074529;28;20040;-27
2023/04/02 04:35:38;;;;;;;3.63;1.07;;;0.50;1.00;;;;;;5073552;28;20052;-26
2023/04/02 04:38:14;;;;;;;10.87;2.23;;;0.50;1.00;;;;;;5073662;28;20049;-26
2023/04/02 04:40:55;;;;;;;8.10;1.60;;;0.50;1.00;;;;;;5073619;28;20048;-26
2023/04/02 04:43:32;;;;;;;10.17;2.10;;;0.50;1.00;;;;;;5074151;28;20059;-26
2023/04/02 04:46:08;;;;;;;8.00;2.57;;;0.40;1.00;;;;;;5073551;28;20053;-26
2023/04/02 04:49:17;;;;;;;11.37;1.47;;;0.40;1.00;;;;;;5073599;28;20135;-26
2023/04/02 04:52:20;;;;;;;8.93;1.70;;;0.30;1.00;;;;;;5074338;28;20052;-26
2023/04/02 04:54:46;;;;;;;9.00;1.50;;;0.30;1.00;;;;;;5077918;28;20094;-26
2023/04/02 04:57:28;;;;;;;4.83;1.13;;;0.30;1.00;;;;;;5077621;28;20084;-28
2023/04/02 05:00:06;;;;;;;5.90;1.37;;;0.30;1.00;;;;;;5078164;28;20055;-26
2023/04/02 05:02:55;;;;;;;6.30;1.33;;;0.30;1.00;;;;;;5077802;28;20040;-27
2023/04/02 05:05:30;;;;;;;4.17;1.27;;;0.30;1.00;;;;;;5076834;28;20415;-26
2023/04/02 05:08:03;;;;;;;8.20;1.20;;;0.60;1.00;;;;;;5077994;28;20045;-25
2023/04/02 05:10:48;;;;;;;8.18;1.08;;;0.20;1.00;;;;;;5078131;28;20044;-27
2023/04/02 05:13:18;;;;;;;12.00;2.00;;;0.20;1.00;;;;;;5075860;28;20091;-25
2023/04/02 05:15:54;;;;;;;5.63;1.20;;;0.20;1.00;;;;;;5077534;28;20465;-27
2023/04/02 05:18:55;;;;;;;6.00;1.20;;;0.20;1.00;;;;;;5077130;28;20083;-26
2023/04/02 05:21:33;;;;;;;8.47;2.60;;;0.30;1.00;;;;;;5076401;28;20056;-25
2023/04/02 05:24:07;;;;;;;3.00;1.00;;;0.30;1.00;;;;;;5077661;28;20049;-25
2023/04/02 05:26:41;;;;;;;8.30;1.03;;;0.30;1.00;;;;;;5077068;28;20086;-26
2023/04/02 05:29:23;;;;;;;4.30;1.30;;;0.30;1.00;;;;;;5077028;28;20078;-25
2023/04/02 05:31:58;;;;;;;6.20;1.37;;;0.40;1.00;;;;;;5059425;28;20048;-25
2023/04/02 05:34:29;;;;;;;9.37;1.60;;;0.40;1.00;;;;;;5077519;28;20051;-25
2023/04/02 05:36:55;;;;;;;6.30;1.37;;;0.40;1.00;;;;;;5077682;28;20040;-26
2023/04/02 05:39:23;;;;;;;8.03;1.20;;;0.40;1.00;;;;;;5076754;28;20561;-26
2023/04/02 05:42:07;;;;;;;5.27;0.87;;;0.60;1.00;;;;;;5076044;28;20083;-26
2023/04/02 05:44:40;;;;;;;8.77;1.17;;;0.50;1.00;;;;;;5076693;28;20519;-25
2023/04/02 05:47:11;;;;;;;;;;;0.60;1.00;;;;;;5075618;28;20515;-25
2023/04/02 05:50:09;;;;;;;7.00;1.47;;;0.70;1.00;;;;;;5076644;28;19920;-25
2023/04/02 05:52:49;;;;;;;8.03;1.37;;;0.70;1.00;;;;;;5076061;28;20502;-25
2023/04/02 05:55:33;;;;;;;6.37;2.50;;;0.80;1.00;;;;;;5076527;28;20040;-26
2023/04/02 05:58:12;;;;;;;6.07;1.10;;;0.80;99.90;;;;;;5076710;28;20543;-26
2023/04/02 06:00:38;;;;;;;5.80;1.60;;;0.80;99.90;;;;;;5075862;28;20156;-26
2023/04/02 06:03:37;;;;;;;4.47;1.77;;;0.90;99.90;;;;;;5076314;28;20445;-26
2023/04/02 06:06:12;;;;;;;3.67;1.10;;;0.90;1.00;;;;;;5075643;28;20483;-26
2023/04/02 06:09:09;;;;;;;7.67;1.27;;;0.90;1.00;;;;;;5076779;28;20044;-26
2023/04/02 06:11:44;;;;;;;7.63;1.80;;;1.00;1.00;;;;;;5075830;28;20441;-26
2023/04/02 06:14:15;;;;;;;5.10;1.63;;;1.10;99.90;;;;;;5077023;28;20079;-26
2023/04/02 06:16:44;;;;;;;5.80;1.43;;;1.60;99.90;;;;;;5076052;28;20375;-26
2023/04/02 06:19:19;;;;;;;7.13;1.27;;;1.20;99.90;;;;;;5076039;28;20071;-27
2023/04/02 06:21:48;;;;;;;6.03;1.57;;;1.20;99.90;;;;;;5076677;28;20046;-25
2023/04/02 06:24:18;;;;;;;3.30;1.33;;;1.50;99.90;;;;;;5075900;28;20045;-26
2023/04/02 06:26:52;;;;;;;5.83;1.10;;;1.50;99.90;;;;;;5077003;28;20055;-26
2023/04/02 06:29:29;;;;;;;3.47;1.00;;;1.50;99.90;;;;;;5076194;28;20128;-26
2023/04/02 06:31:59;;;;;;;5.70;1.57;;;1.60;99.90;;;;;;5074689;28;20076;-26
2023/04/02 06:34:27;;;;;;;5.53;1.20;;;1.60;99.90;;;;;;5075746;28;20098;-26
2023/04/02 06:37:03;;;;;;;7.37;2.20;;;1.60;99.90;;;;;;5075394;28;20494;-27
2023/04/02 06:39:29;;;;;;;5.07;1.03;;;1.70;99.90;;;;;;5074577;28;20045;-26
2023/04/02 06:42:16;;;;;;;5.10;0.77;;;1.70;99.90;;;;;;5075634;28;20040;-26
2023/04/02 06:44:42;;;;;;;7.23;1.43;;;1.70;99.90;;;;;;5076151;28;20507;-26
2023/04/02 06:47:32;;;;;;;7.23;1.10;;;1.80;99.90;;;;;;5075485;28;20102;-26
2023/04/02 06:50:07;;;;;;;2.87;1.00;;;1.90;99.90;;;;;;5074581;28;20052;-26
2023/04/02 06:52:43;;;;;;;5.97;1.30;;;2.00;99.90;;;;;;5076276;28;20055;-26
2023/04/02 06:55:24;;;;;;;4.30;1.37;;;2.10;99.90;;;;;;5074407;28;20052;-26
2023/04/02 06:57:50;;;;;;;7.37;1.13;;;2.20;99.90;;;;;;5074992;28;20098;-26
2023/04/02 07:00:44;;;;;;;6.00;1.00;;;2.30;99.90;;;;;;5076116;28;20048;-26
2023/04/02 07:03:30;;;;;;;5.33;1.00;;;2.50;99.90;;;;;;5074664;28;20052;-27
2023/04/02 07:05:57;;;;;;;3.50;0.93;;;2.50;92.60;;;;;;5075260;28;20044;-26
2023/04/02 07:08:24;;;;;;;4.83;0.77;;;2.70;99.90;;;;;;5073923;28;20129;-27
2023/04/02 07:10:50;;;;;;;6.67;1.10;;;2.70;1.00;;;;;;5075267;28;20087;-26
2023/04/02 07:13:23;;;;;;;4.83;0.73;;;2.90;62.20;;;;;;5072727;28;20091;-26
2023/04/02 07:15:53;;;;;;;6.13;1.38;;;3.00;99.90;;;;;;5075063;28;20114;-27
2023/04/02 07:18:22;;;;;;;3.78;0.60;;;3.20;1.00;;;;;;5056652;28;20044;-26
2023/04/02 07:20:48;;;;;;;4.10;1.67;;;3.30;1.00;;;;;;5075624;28;20103;-27
2023/04/02 07:23:13;;;;;;;5.53;1.23;;;3.40;1.00;;;;;;5074779;28;20076;-26
2023/04/02 07:25:39;;;;;;;6.05;1.00;;;3.40;99.90;;;;;;5073590;28;20399;-26
2023/04/02 07:28:05;;;;;;;7.60;1.40;;;3.50;99.90;;;;;;5074660;28;20044;-26
2023/04/02 07:30:31;;;;;;;5.97;1.08;;;3.50;99.90;;;;;;5074848;28;20040;-28
2023/04/02 07:32:57;;;;;;;3.40;0.50;;;3.60;99.90;;;;;;5074665;28;20074;-26
2023/04/02 07:35:22;;;;;;;5.95;0.90;;;3.80;99.90;;;;;;5075326;28;20044;-26
2023/04/02 07:37:48;;;;;;;7.13;1.35;;;4.00;99.90;;;;;;5073547;28;20053;-26
2023/04/02 07:40:19;;;;;;;2.65;0.80;;;4.10;99.90;;;;;;5074480;28;20505;-28
2023/04/02 07:42:45;;;;;;;6.07;0.95;;;4.30;1.00;;;;;;5074751;28;20379;-26
2023/04/02 07:45:12;;;;;;;2.37;0.90;;;4.40;99.90;;;;;;5057457;28;20093;-26
2023/04/02 07:47:38;;;;;;;2.97;0.50;;;4.40;99.90;;;;;;5074659;28;20044;-26
2023/04/02 07:50:05;;;;;;;4.03;0.60;;;4.60;99.90;;;;;;5074589;28;20193;-26
2023/04/02 07:52:31;;;;;;;4.70;1.10;;;4.70;99.90;;;;;;5074106;28;20040;-26
2023/04/02 07:54:56;;;;;;;8.63;1.02;;;4.80;1.00;;;;;;5074415;28;20052;-27
2023/04/02 07:57:22;;;;;;;3.70;0.68;;;4.90;99.90;;;;;;5072866;28;20135;-27
2023/04/02 07:59:48;;;;;;;4.60;0.82;;;4.90;99.90;;;;;;5072863;28;20036;-26
2023/04/02 08:02:21;;;;;;;3.83;0.75;;;4.90;1.00;;;;;;5074103;28;20044;-27
2023/04/02 08:04:50;;;;;;;9.85;1.88;;;4.80;99.90;;;;;;5074080;28;20052;-27
2023/04/02 08:07:18;;;;;;;4.13;1.20;;;4.60;99.90;;;;;;5073991;28;20048;-26
2023/04/02 08:09:43;;;;;;;5.22;0.98;;;4.50;99.90;;;;;;5072799;28;20045;-27
2023/04/02 08:12:12;;;;;;;3.97;1.13;;;4.50;99.90;;;;;;5074144;28;20087;-27
2023/04/02 08:14:38;;;;;;;6.80;0.90;;;4.60;1.00;;;;;;5073862;28;20097;-26
2023/04/02 08:17:04;;;;;;;6.35;0.88;;;4.60;99.90;;;;;;5072922;28;20139;-26
2023/04/02 08:19:32;;;;;;;12.25;1.42;;;4.60;99.90;;;;;;5073781;28;20397;-26
2023/04/02 08:21:58;;;;;;;4.82;0.82;;;4.60;1.00;;;;;;5073820;28;20087;-27
2023/04/02 08:24:24;;;;;;;5.07;1.20;;;4.60;1.00;;;;;;5073481;28;20076;-26
2023/04/02 08:26:52;;;;;;;3.75;0.60;;;4.50;99.90;;;;;;5073212;28;20149;-26
2023/04/02 08:29:18;;;;;;;5.13;1.50;;;4.30;99.90;;;;;;5072777;28;20491;-26
2023/04/02 08:31:44;;;;;;;5.20;1.42;;;4.20;1.00;;;;;;5073612;28;20090;-25
2023/04/02 08:34:10;;;;;;;3.05;0.65;;;4.10;99.90;;;;;;5073945;28;20044;-26
2023/04/02 08:36:38;;;;;;;3.17;1.15;;;4.10;1.00;;;;;;5073669;28;20063;-26
2023/04/02 08:39:09;;;;;;;5.28;0.88;;;4.30;1.00;;;;;;5073602;28;20050;-26
2023/04/02 08:41:40;;;;;;;6.18;1.92;;;4.50;99.90;;;;;;5072447;28;20052;-26
2023/04/02 08:44:39;;;;;;;8.18;0.80;;;4.60;1.00;;;;;;5073617;28;20040;-26
2023/04/02 08:47:07;;;;;;;4.65;0.95;;;4.80;1.00;;;;;;5044685;28;20049;-27
2023/04/02 08:50:00;;;;;;;4.78;0.75;;;5.10;99.90;;;;;;5073528;28;20045;-26
2023/04/02 08:52:31;;;;;;;3.92;0.70;;;5.30;99.90;;;;;;5073448;28;20036;-27
2023/04/02 08:54:59;;;;;;;7.55;1.30;;;5.40;99.90;;;;;;5072280;28;20457;-26
2023/04/02 08:57:35;;;;;;;4.15;0.90;;;5.70;99.90;;;;;;5072300;28;20052;-26
2023/04/02 09:00:27;;;;;;;7.55;0.90;;;5.80;99.90;;;;;;5073759;28;20463;-27
2023/04/02 09:03:01;;;;;;;4.50;0.85;;;5.90;99.90;;;;;;5072846;28;20048;-27
2023/04/02 09:05:31;;;;;;;3.22;0.82;;;5.90;1.00;;;;;;5062112;28;20041;-26
2023/04/02 09:08:00;;;;;;;4.25;1.17;;;5.80;99.90;;;;;;5071019;28;20090;-27
2023/04/02 09:10:37;;;;;;;3.88;0.85;;;5.90;99.90;;;;;;5073296;28;20461;-27
2023/04/02 09:13:13;;;;;;;6.30;0.77;;;6.60;1.00;;;;;;5071907;28;20052;-27
2023/04/02 09:15:38;;;;;;;3.05;0.85;;;7.70;29.70;;;;;;5073303;28;20044;-26
2023/04/02 09:18:16;;;;;;;2.65;0.75;;;7.80;99.90;;;;;;5052179;28;20094;-27
2023/04/02 09:20:43;;;;;;;4.55;0.80;;;8.10;99.90;;;;;;5072823;28;20044;-26
2023/04/02 09:23:25;;;;;;;6.18;1.02;;;8.50;1.00;;;;;;5073162;28;20097;-26
2023/04/02 09:25:53;;;;;;;4.68;0.63;;;9.10;99.90;;;;;;5073515;28;20123;-27
2023/04/02 09:28:20;;;;;;;3.88;0.68;;;9.70;99.90;;;;;;5070881;28;20049;-28
2023/04/02 09:30:46;;;;;;;4.80;1.00;;;;;;;;;;5057128;28;20052;-28
2023/04/02 09:33:12;;;;;;;2.38;0.73;;;10.50;1.00;;;;;;5053037;28;20041;-26
2023/04/02 09:35:55;;;;;;;3.60;0.80;;;10.80;1.00;;;;;;5053065;28;20479;-28
2023/04/02 09:38:30;;;;;;;4.60;0.82;;;10.90;99.90;;;;;;5057324;28;20142;-27
2023/04/02 09:41:00;;;;;;;3.38;0.55;;;11.10;99.90;;;;;;5056654;28;20131;-27
2023/04/02 09:43:31;;;;;;;3.13;0.60;;;10.90;99.90;;;;;;5056818;28;20052;-27
2023/04/02 09:46:11;;;;;;;3.28;0.88;;;10.40;99.90;;;;;;5056643;28;20084;-27
2023/04/02 09:49:04;;;;;;;4.20;0.73;;;10.20;99.90;;;;;;5056666;28;20050;-27
2023/04/02 09:51:33;;;;;;;5.57;1.10;;;10.50;1.00;;;;;;5055780;28;20142;-27
2023/04/02 09:54:02;;;;;;;3.47;0.57;;;10.70;99.90;;;;;;5056539;28;20041;-28
2023/04/02 09:56:35;;;;;;;2.72;0.90;;;10.80;99.90;;;;;;5056416;28;20102;-26
2023/04/02 09:59:15;;;;;;;2.40;0.38;;;10.70;99.90;;;;;;5056416;28;20156;-26
2023/04/02 10:01:54;;;;;;;2.28;0.60;;;10.50;1.00;;;;;;5056616;28;20102;-26
2023/04/02 10:04:43;;;;;;;2.97;0.50;;;10.20;60.20;;;;;;5040664;28;20468;-26
2023/04/02 10:07:28;;;;;;;3.95;0.55;;;10.30;5.70;;;;;;5056491;28;20063;-26
2023/04/02 10:09:59;;;;;;;3.00;0.57;;;10.20;45.90;;;;;;5056796;28;20098;-26
2023/04/02 10:12:27;;;;;;;6.32;0.80;;;10.30;53.90;;;;;;5055884;28;20056;-26
2023/04/02 10:14:54;;;;;;;4.82;0.98;;;10.60;99.90;;;;;;5055799;28;20514;-27
2023/04/02 10:17:35;;;;;;;2.42;0.60;;;10.80;99.90;;;;;;5055991;28;20380;-26
2023/04/02 10:20:23;;;;;;;2.95;1.08;;;11.10;1.00;;;;;;5056617;28;20045;-26
2023/04/02 10:22:49;;;;;;;2.25;0.50;;;11.50;1.00;;;;;;5056182;28;20138;-26
2023/04/02 10:25:18;;;;;;;3.28;0.30;;;11.70;4.70;;;;;;5056594;28;20056;-27
2023/04/02 10:27:56;;;;;;;2.25;0.40;;;11.80;1.00;;;;;;5055575;28;20037;-26
2023/04/02 10:31:10;;;;;;;2.72;0.60;;;11.50;1.00;;;;;;5055586;28;20503;-26
2023/04/02 10:33:37;;;;;;;;;;;12.00;1.00;;;;;;5056134;28;20056;-26
2023/04/02 10:36:17;;;;;;;3.67;0.70;;;11.80;1.00;;;;;;5038303;28;19921;-27
2023/04/02 10:39:00;;;;;;;3.33;0.40;;;12.40;1.00;;;;;;5055802;28;20045;-26
2023/04/02 10:41:32;;;;;;;1.75;0.40;;;12.30;1.00;;;;;;5054766;28;20129;-26
2023/04/02 10:44:04;;;;;;;2.70;0.50;;;11.50;1.00;;;;;;5054769;28;20076;-26
2023/04/02 10:46:42;;;;;;;4.60;0.60;;;11.00;1.00;;;;;;5055506;28;20045;-25
2023/04/02 10:49:08;;;;;;;2.17;0.50;;;10.80;99.90;;;;;;5055236;28;20483;-26
2023/04/02 10:51:47;;;;;;;5.07;0.82;;;11.20;1.00;;;;;;5055337;28;20162;-26
2023/04/02 10:54:35;;;;;;;3.60;0.35;;;11.40;1.00;;;;;;5054995;28;20395;-26
2023/04/02 10:57:27;;;;;;;3.22;0.50;;;11.20;1.00;;;;;;5055490;28;20053;-25
2023/04/02 11:00:09;;;;;;;3.20;0.40;;;11.30;1.00;;;;;;5055357;28;20102;-26
2023/04/02 11:02:47;;;;;;;2.10;0.40;;;12.00;1.00;;;;;;5055316;28;20545;-26
2023/04/02 11:05:22;;;;;;;2.22;0.40;;;11.80;1.00;;;;;;5055233;28;20429;-25
2023/04/02 11:08:20;;;;;;;1.90;0.40;;;11.50;1.00;;;;;;5055226;28;20154;-25
2023/04/02 11:11:00;;;;;;;2.15;0.30;;;11.40;1.00;;;;;;5055257;28;20135;-25
2023/04/02 11:13:46;;;;;;;5.38;1.20;;;10.70;1.00;;;;;;5055668;28;20061;-24
2023/04/02 11:16:15;;;;;;;2.00;0.40;;;10.50;1.00;;;;;;5053790;28;20132;-25
2023/04/02 11:18:43;;;;;;;1.95;0.45;;;10.10;1.00;;;;;;5054776;28;20132;-25
2023/04/02 11:21:38;;;;;;;2.78;0.45;;;10.10;1.00;;;;;;5054884;28;20098;-24
2023/04/02 11:24:04;;;;;;;3.20;0.50;;;10.20;1.00;;;;;;5055145;28;20395;-27
2023/04/02 11:26:30;;;;;;;5.05;0.60;;;10.20;1.00;;;;;;5037323;28;20106;-25
2023/04/02 11:29:16;;;;;;;3.95;0.40;;;10.20;1.00;;;;;;5036916;28;20057;-25
2023/04/02 11:31:43;;;;;;;2.75;0.50;;;10.50;1.00;;;;;;5055498;28;20044;-26
2023/04/02 11:34:41;;;;;;;1.73;0.45;;;10.90;1.00;;;;;;5054635;28;20045;-25
2023/04/02 11:37:27;;;;;;;3.10;0.60;;;11.30;1.00;;;;;;5054627;28;20522;-25
2023/04/02 11:39:56;;;;;;;2.28;0.40;;;11.30;1.00;;;;;;5053622;28;20487;-25
2023/04/02 11:42:25;;;;;;;4.53;1.20;;;10.80;1.00;;;;;;5054768;28;20041;-24
2023/04/02 11:44:52;;;;;;;1.42;0.30;;;10.70;1.00;;;;;;5054734;28;20049;-24
2023/04/02 11:47:21;;;;;;;1.83;0.20;;;10.70;1.00;;;;;;5054387;28;20092;-25
2023/04/02 11:49:53;;;;;;;3.25;0.47;;;10.80;1.00;;;;;;5053371;28;20232;-25
2023/04/02 11:52:22;;;;;;;1.30;0.32;;;10.60;1.00;;;;;;5054483;28;20041;-25
2023/04/02 11:55:04;;;;;;;3.00;0.30;;;10.80;1.00;;;;;;5053904;28;20519;-26
2023/04/02 11:57:49;;;;;;;1.95;0.40;;;11.60;1.00;;;;;;5054269;28;20501;-25
2023/04/02 12:00:31;;;;;;;3.85;1.15;;;12.20;1.00;;;;;;5053501;28;20088;-25
2023/04/02 12:03:20;;;;;;;1.95;0.45;;;11.90;1.00;;;;;;5054732;28;20052;-25
2023/04/02 12:05:53;;;;;;;3.67;0.50;;;11.10;99.90;;;;;;5054131;28;20080;-24
2023/04/02 12:08:38;;;;;;;3.60;0.52;;;10.60;99.90;;;;;;5054072;28;20491;-25
2023/04/02 12:11:05;;;;;;;3.97;0.85;;;10.80;99.90;;;;;;5054766;28;20041;-24
2023/04/02 12:13:39;;;;;;;4.13;0.60;;;11.00;1.00;;;;;;5053794;28;20095;-24
2023/04/02 12:16:16;;;;;;;2.00;0.45;;;11.60;1.00;;;;;;5054512;28;20049;-24
2023/04/02 12:18:52;;;;;;;2.50;0.43;;;11.90;1.00;;;;;;5053872;28;20086;-25
2023/04/02 12:21:24;;;;;;;4.85;1.15;;;12.40;1.00;;;;;;5052992;28;20063;-26
2023/04/02 12:23:53;;;;;;;4.35;2.22;;;12.90;1.00;;;;;;5053200;28;20247;-26
2023/04/02 12:26:36;;;;;;;3.70;0.70;;;13.30;1.00;;;;;;5053856;28;20122;-25
2023/04/02 12:29:25;;;;;;;1.10;0.20;;;13.00;99.90;;;;;;5053088;28;20092;-25
2023/04/02 12:31:55;;;;;;;3.15;0.35;;;12.70;99.90;;;;;;5053583;28;20045;-24
2023/04/02 12:34:23;;;;;;;4.43;0.60;;;12.40;99.90;;;;;;5054193;28;20064;-24
2023/04/02 12:37:01;;;;;;;3.58;0.95;;;12.40;99.90;;;;;;5052678;28;20102;-25
2023/04/02 12:39:29;;;;;;;3.95;0.20;;;12.70;1.00;;;;;;5052978;28;20053;-25
2023/04/02 12:41:55;;;;;;;3.03;0.35;;;13.00;99.90;;;;;;5053907;28;20441;-25
2023/04/02 12:44:24;;;;;;;1.75;0.68;;;12.50;99.90;;;;;;5052584;28;20158;-25
2023/04/02 12:46:51;;;;;;;21.48;15.38;;;12.40;99.90;;;;;;5054328;28;20045;-24
2023/04/02 12:49:36;;;;;;;5.72;1.50;;;12.60;1.00;;;;;;5053240;28;20507;-23
2023/04/02 12:52:14;;;;;;;3.50;0.65;;;12.90;1.00;;;;;;5035735;28;20059;-22
2023/04/02 12:54:57;;;;;;;3.10;0.50;;;12.10;99.90;;;;;;5054070;28;20048;-22
2023/04/02 12:57:26;;;;;;;;;;;11.70;99.90;;;;;;5037256;28;20367;-23
2023/04/02 12:59:54;;;;;;;2.85;0.30;;;11.70;99.90;;;;;;5053427;28;20391;-22
2023/04/02 13:02:28;;;;;;;1.80;0.40;;;11.30;99.90;;;;;;5053950;28;20102;-22
2023/04/02 13:04:59;;;;;;;1.73;0.50;;;11.20;99.90;;;;;;5054254;28;20049;-22
2023/04/02 13:07:28;;;;;;;3.58;0.30;;;11.30;1.00;;;;;;5053397;28;20110;-22
2023/04/02 13:09:59;;;;;;;1.35;0.35;;;11.70;1.00;;;;;;5053381;28;20091;-22
2023/04/02 13:12:26;;;;;;;3.22;0.50;;;11.80;99.90;;;;;;5038395;28;20099;-22
2023/04/02 13:14:56;;;;;;;1.67;0.38;;;11.90;1.00;;;;;;5057245;28;20060;-22
2023/04/02 13:17:39;;;;;;;2.47;0.45;;;12.00;99.90;;;;;;5057513;28;20205;-22
2023/04/02 13:20:34;;;;;;;2.30;0.40;;;11.90;1.00;;;;;;5058019;28;20052;-22
2023/04/02 13:23:20;;;;;;;2.28;0.63;;;12.10;99.90;;;;;;5057070;28;20124;-22
2023/04/02 13:25:46;;;;;;;2.72;0.43;;;12.20;1.00;;;;;;5056948;28;20352;-22
2023/04/02 13:28:12;;;;;;;2.78;0.50;;;11.80;99.90;;;;;;5056413;28;20048;-22
2023/04/02 13:30:37;;;;;;;1.15;0.38;;;11.40;99.90;;;;;;5056829;28;20060;-22
2023/04/02 13:33:03;;;;;;;2.50;0.50;;;11.50;1.00;;;;;;5022877;28;20047;-22
2023/04/02 13:35:29;;;;;;;4.00;0.70;;;11.50;99.90;;;;;;5056225;28;20475;-22
2023/04/02 13:37:55;;;;;;;2.65;0.60;;;11.60;1.00;;;;;;5057688;28;20056;-22
2023/04/02 13:40:21;;;;;;;5.97;1.02;;;11.80;1.00;;;;;;5039153;28;20049;-22